MI13 weather

Minikey Airport
Sheridan, Michigan, United States

Public forecast

Using degrees Fahrenheit for public forecast. Weather courtesy of forecast.io.

METAR (pilot weather report)

Closest report is Ionia County Airport, 13.4 nm (24.9 km) S. Retrieved 2019/09/16 13:40 UTC (13 minutes ago):

KY70 161340Z AUTO 04003KT 10SM SCT003 OVC023 19/18 A3012 RMK AO2 T01920183

TAF (pilot weather forecast)

Closest forecast is Gerald R. Ford International Airport, 26.3 nm (48.8 km) SW. Retrieved 2019/09/16 12:54 UTC (59 minutes ago):

TAF COR KGRR 161151Z 1612/1712 35004KT P6SM BKN015 FM161400 36003KT P6SM SCT015 BKN035 FM161600 04008KT P6SM BKN025 FM161800 04008KT P6SM BKN035 FM170000 04003KT P6SM SKC FM170600 08005KT 5SM BR OVC250 FM170900 08004KT 1SM BR BKN009